Time;durP1;ratioP1;P1;durP2;ratioP2;P2;SDS_P1;SDS_P2;PMS_P1;PMS_P2;Temp;Humidity;BMP_temperature;BMP_pressure;BME280_temperature;BME280_humidity;BME280_pressure;Samples;Min_cycle;Max_cycle;Signal;HPM_P1;HPM_P2
2022/01/09 00:00:06;;;;;;;46.00;8.73;;;;;;;8.63;68.00;98910.94;5266773;28;20412;-48
2022/01/09 00:02:39;;;;;;;42.17;8.75;;;;;;;8.63;68.18;98923.28;5271760;27;20772;-48
2022/01/09 00:05:13;;;;;;;43.05;8.90;;;;;;;8.61;68.12;98925.25;5270500;28;20416;-48
2022/01/09 00:07:46;;;;;;;47.65;9.82;;;;;;;8.59;68.11;98930.72;5267682;28;20891;-48
2022/01/09 00:10:19;;;;;;;59.65;11.63;;;;;;;8.59;68.13;98920.19;5270550;28;20449;-46
2022/01/09 00:12:52;;;;;;;53.05;11.32;;;;;;;8.60;68.04;98929.72;5265787;28;20430;-45
2022/01/09 00:15:25;;;;;;;49.80;9.68;;;;;;;8.54;68.05;98922.56;5261071;28;20390;-45
2022/01/09 00:17:57;;;;;;;48.15;10.25;;;;;;;8.57;68.10;98937.16;5267977;27;20412;-49
2022/01/09 00:20:30;;;;;;;53.58;12.48;;;;;;;8.57;68.10;98951.13;5262443;28;20885;-47
2022/01/09 00:23:02;;;;;;;51.55;10.52;;;;;;;8.55;68.14;98955.78;5267015;28;20409;-46
2022/01/09 00:25:35;;;;;;;48.17;9.23;;;;;;;8.54;68.02;98962.84;5273239;27;20401;-46
2022/01/09 00:28:08;;;;;;;50.90;9.63;;;;;;;8.52;67.99;98970.13;5274932;28;20756;-46
2022/01/09 00:30:41;;;;;;;42.47;8.00;;;;;;;8.50;68.07;98968.66;5272752;27;20487;-44
2022/01/09 00:33:13;;;;;;;48.08;10.07;;;;;;;8.52;68.09;98979.81;5270812;28;20422;-45
2022/01/09 00:35:45;;;;;;;44.78;9.30;;;;;;;8.52;67.97;98974.56;5269170;28;20400;-44
2022/01/09 00:38:18;;;;;;;44.50;10.75;;;;;;;8.51;67.96;98975.53;5263114;28;20553;-45
2022/01/09 00:40:50;;;;;;;49.37;10.13;;;;;;;8.50;68.03;98984.44;5271429;28;20448;-46
2022/01/09 00:43:24;;;;;;;44.67;9.48;;;;;;;8.51;67.97;98984.25;5266267;27;20404;-46
2022/01/09 00:45:56;;;;;;;50.70;10.88;;;;;;;8.53;67.71;99007.75;5264739;28;20491;-51
2022/01/09 00:48:28;;;;;;;39.35;8.27;;;;;;;8.54;67.77;98996.22;5268800;28;20489;-48
2022/01/09 00:51:01;;;;;;;54.15;11.50;;;;;;;8.53;67.63;98989.34;5270874;28;20407;-46
2022/01/09 00:53:33;;;;;;;45.30;9.27;;;;;;;8.53;67.77;99005.13;5266360;28;20527;-48
2022/01/09 00:56:06;;;;;;;50.55;10.25;;;;;;;8.53;67.67;99013.03;5258823;28;20412;-46
2022/01/09 00:58:39;;;;;;;43.38;9.35;;;;;;;8.51;67.59;99022.91;5267016;28;20761;-45
2022/01/09 01:01:12;;;;;;;50.70;9.10;;;;;;;8.53;67.59;99028.81;5264984;28;20434;-43
2022/01/09 01:03:44;;;;;;;52.05;9.70;;;;;;;8.53;67.43;99034.06;5269010;28;20403;-47
2022/01/09 01:06:16;;;;;;;49.53;10.17;;;;;;;8.54;67.49;99040.97;5271006;28;20408;-50
2022/01/09 01:08:48;;;;;;;41.73;9.83;;;;;;;8.54;67.44;99051.47;5264915;28;20462;-46
2022/01/09 01:11:21;;;;;;;40.80;9.68;;;;;;;8.52;67.39;99048.22;5269147;28;20399;-45
2022/01/09 01:13:54;;;;;;;40.75;9.32;;;;;;;8.52;67.39;99056.13;5266630;28;20418;-45
2022/01/09 01:16:27;;;;;;;45.80;9.57;;;;;;;8.50;67.38;99060.75;5270584;27;20513;-46
2022/01/09 01:19:00;;;;;;;50.10;10.20;;;;;;;8.48;67.45;99047.75;5267739;28;20436;-46
2022/01/09 01:21:33;;;;;;;37.27;8.70;;;;;;;8.47;67.31;99061.09;5262827;28;20777;-51
2022/01/09 01:24:06;;;;;;;53.75;9.70;;;;;;;8.43;67.57;99073.81;5268882;28;20406;-47
2022/01/09 01:26:38;;;;;;;48.78;9.98;;;;;;;8.45;67.42;99076.25;5266159;28;20428;-44
2022/01/09 01:29:12;;;;;;;45.92;8.48;;;;;;;8.45;67.40;99084.94;5271882;28;20399;-46
2022/01/09 01:31:44;;;;;;;42.28;9.55;;;;;;;8.43;67.30;99094.84;5268616;28;20503;-46
2022/01/09 01:34:16;;;;;;;32.83;6.97;;;;;;;8.43;67.30;99096.66;5261054;28;20400;-45
2022/01/09 01:36:49;;;;;;;36.17;8.13;;;;;;;8.43;67.26;99096.66;5271368;28;20410;-45
2022/01/09 01:39:22;;;;;;;32.65;7.80;;;;;;;8.43;67.21;99112.44;5266926;28;20426;-46
2022/01/09 01:41:55;;;;;;;46.05;8.57;;;;;;;8.41;67.20;99115.25;5268300;27;20411;-46
2022/01/09 01:44:40;;;;;;;36.15;8.38;;;;;;;8.40;67.28;99123.31;5268547;28;20408;-44
2022/01/09 01:47:14;;;;;;;46.25;8.70;;;;;;;8.40;67.25;99128.59;5268505;28;20868;-45
2022/01/09 01:49:47;;;;;;;38.25;8.38;;;;;;;8.42;67.08;99137.09;5267287;28;20411;-46
2022/01/09 01:52:26;;;;;;;43.00;9.15;;;;;;;8.41;67.02;99141.56;5267316;28;20420;-47
2022/01/09 01:54:59;;;;;;;47.33;9.20;;;;;;;8.44;66.98;99143.00;5269731;28;20485;-46
2022/01/09 01:57:32;;;;;;;41.55;7.75;;;;;;;8.44;67.00;99156.16;5266248;28;20909;-45
2022/01/09 02:00:10;;;;;;;43.13;8.88;;;;;;;8.36;67.04;99143.03;5264410;28;20388;-45
2022/01/09 02:02:43;;;;;;;33.38;7.13;;;;;;;8.40;66.93;99152.25;5266035;28;20412;-45
2022/01/09 02:05:15;;;;;;;41.28;7.18;;;;;;;8.38;67.01;99164.72;5267656;28;20396;-47
2022/01/09 02:07:47;;;;;;;28.07;7.70;;;;;;;8.34;66.95;99160.81;5261195;28;20429;-45
2022/01/09 02:10:20;;;;;;;31.13;6.88;;;;;;;8.32;67.07;99169.69;5262167;28;20504;-49
2022/01/09 02:12:56;;;;;;;39.40;9.40;;;;;;;8.34;67.00;99173.97;5264662;28;20409;-45
2022/01/09 02:15:34;;;;;;;38.88;8.73;;;;;;;8.35;66.91;99178.25;5258095;28;20410;-45
2022/01/09 02:18:09;;;;;;;38.83;8.15;;;;;;;8.37;66.91;99176.25;5265339;28;20506;-45
2022/01/09 02:20:44;;;;;;;43.05;9.02;;;;;;;8.37;66.96;99181.53;5269302;28;20428;-44
2022/01/09 02:23:17;;;;;;;39.30;7.25;;;;;;;8.31;66.84;99183.84;5265542;28;20430;-46
2022/01/09 02:25:51;;;;;;;38.85;7.25;;;;;;;8.37;66.86;99184.16;5266648;28;20406;-47
2022/01/09 02:28:26;;;;;;;34.10;7.78;;;;;;;8.37;66.74;99184.16;5269359;28;20409;-45
2022/01/09 02:30:58;;;;;;;33.15;7.75;;;;;;;8.30;66.89;99195.38;5268765;28;20408;-46
2022/01/09 02:33:31;;;;;;;28.35;6.95;;;;;;;8.24;66.91;99192.63;5269776;28;20408;-45
2022/01/09 02:36:05;;;;;;;30.38;6.20;;;;;;;8.19;66.91;99206.28;5267389;28;20423;-51
2022/01/09 02:38:38;;;;;;;23.13;5.22;;;;;;;8.14;66.82;99223.56;5262137;28;20436;-45
2022/01/09 02:41:10;;;;;;;24.23;5.32;;;;;;;8.09;66.80;99216.22;5267767;28;20416;-46
2022/01/09 02:43:43;;;;;;;22.15;5.78;;;;;;;8.06;66.92;99221.81;5266799;28;20420;-45
2022/01/09 02:46:32;;;;;;;33.10;7.03;;;;;;;7.99;66.72;99215.59;5266441;28;20484;-44
2022/01/09 02:49:06;;;;;;;35.97;7.85;;;;;;;8.01;66.81;99237.28;5267839;28;20934;-46
2022/01/09 02:51:40;;;;;;;33.03;8.35;;;;;;;8.03;66.55;99232.69;5268005;28;20420;-45
2022/01/09 02:57:03;;;;;;;33.22;7.93;;;;;;;8.01;66.65;99246.00;5267052;28;20457;-45
2022/01/09 02:59:35;;;;;;;35.75;7.38;;;;;;;8.01;66.63;99253.06;5266104;28;20395;-44
2022/01/09 03:02:07;;;;;;;28.40;7.23;;;;;;;8.00;66.64;99267.22;5265833;28;20419;-45
2022/01/09 03:04:39;;;;;;;30.23;6.85;;;;;;;7.99;66.42;99271.66;5266456;28;20404;-50
2022/01/09 03:07:13;;;;;;;35.25;7.60;;;;;;;7.99;66.61;99276.06;5267846;28;20512;-47
2022/01/09 03:09:45;;;;;;;29.00;6.20;;;;;;;7.96;66.47;99273.78;5266974;28;20404;-45
2022/01/09 03:12:17;;;;;;;23.20;6.75;;;;;;;7.95;66.67;99272.97;5267325;28;20419;-44
2022/01/09 03:14:50;;;;;;;22.42;5.75;;;;;;;7.93;66.74;99295.16;5268811;28;20447;-45
2022/01/09 03:17:23;;;;;;;28.98;5.50;;;;;;;7.91;66.70;99299.78;5268978;28;20825;-44
2022/01/09 03:19:55;;;;;;;30.65;6.35;;;;;;;7.92;66.53;99301.41;5268741;28;20392;-46
2022/01/09 03:22:29;;;;;;;24.23;5.75;;;;;;;7.94;66.44;99313.41;5271771;28;20948;-45
2022/01/09 03:25:01;;;;;;;28.73;6.78;;;;;;;7.94;66.46;99308.13;5267396;28;20569;-44
2022/01/09 03:27:34;;;;;;;26.10;6.22;;;;;;;7.94;66.38;99317.84;5264142;28;20493;-47
2022/01/09 03:30:09;;;;;;;30.10;5.97;;;;;;;7.94;66.55;99317.84;5268350;28;20484;-44
2022/01/09 03:32:43;;;;;;;26.65;6.25;;;;;;;7.91;66.36;99334.75;5273634;27;20418;-45
2022/01/09 03:35:18;;;;;;;25.65;5.97;;;;;;;7.90;66.43;99340.16;5271472;28;20404;-45
2022/01/09 03:37:52;;;;;;;29.17;7.20;;;;;;;7.90;66.29;99332.28;5269638;28;20405;-45
2022/01/09 03:40:28;;;;;;;27.77;6.35;;;;;;;7.91;66.35;99347.09;5268946;27;20488;-46
2022/01/09 03:43:00;;;;;;;23.02;6.47;;;;;;;7.92;66.29;99330.31;5263286;28;20402;-45
2022/01/09 03:45:33;;;;;;;21.75;4.72;;;;;;;7.92;66.17;99346.91;5265949;28;20417;-46
2022/01/09 03:48:06;;;;;;;23.75;5.28;;;;;;;7.93;66.20;99360.88;5267707;28;20412;-46
2022/01/09 03:50:38;;;;;;;32.23;7.60;;;;;;;7.94;66.21;99357.25;5272684;28;20439;-47
2022/01/09 03:53:12;;;;;;;29.98;6.53;;;;;;;7.92;66.21;99364.50;5267854;27;20880;-46
2022/01/09 03:55:44;;;;;;;27.40;7.27;;;;;;;7.92;66.26;99353.97;5269780;28;20426;-46
2022/01/09 03:58:17;;;;;;;19.00;6.47;;;;;;;7.89;66.19;99368.28;5270067;27;20858;-44
2022/01/09 04:00:49;;;;;;;22.98;5.57;;;;;;;7.87;66.30;99372.91;5271864;27;20411;-45
2022/01/09 04:03:21;;;;;;;29.70;6.75;;;;;;;7.85;66.09;99373.06;5263079;28;20420;-46
2022/01/09 04:05:54;;;;;;;26.35;6.35;;;;;;;7.86;66.13;99377.31;5266445;28;20727;-44
2022/01/09 04:08:27;;;;;;;27.02;5.90;;;;;;;7.84;66.31;99381.13;5269735;28;20411;-44
2022/01/09 04:11:01;;;;;;;21.05;5.47;;;;;;;7.48;66.17;99312.38;5260525;27;20414;-51
2022/01/09 04:13:33;;;;;;;21.15;5.22;;;;;;;7.81;66.03;99389.34;5263473;27;20919;-48
2022/01/09 04:16:06;;;;;;;36.03;7.07;;;;;;;7.81;66.19;99391.97;5268653;28;20397;-45
2022/01/09 04:18:38;;;;;;;28.20;6.53;;;;;;;7.81;66.05;99392.78;5270260;28;20772;-44
2022/01/09 04:21:11;;;;;;;39.20;8.30;;;;;;;7.83;66.06;99401.34;5270186;28;20512;-44
2022/01/09 04:23:44;;;;;;;23.10;7.25;;;;;;;7.85;65.81;99398.53;5270834;28;20743;-46
2022/01/09 04:26:18;;;;;;;35.15;7.28;;;;;;;7.84;66.01;99405.59;5271431;27;20424;-46
2022/01/09 04:28:51;;;;;;;28.35;6.88;;;;;;;7.84;65.88;99408.22;5267469;27;20425;-45
2022/01/09 04:31:23;;;;;;;30.00;7.32;;;;;;;7.50;65.78;99362.94;5266429;27;20491;-43
2022/01/09 04:33:55;;;;;;;25.13;7.70;;;;;;;7.81;65.91;99428.75;5269690;28;20410;-45
2022/01/09 04:36:28;;;;;;;23.00;6.63;;;;;;;7.79;65.86;99431.53;5270914;28;20905;-45
2022/01/09 04:39:01;;;;;;;32.53;7.25;;;;;;;7.79;65.86;99430.72;5261375;28;20483;-47
2022/01/09 04:41:34;;;;;;;24.77;6.80;;;;;;;7.79;65.87;99431.53;5264410;28;20834;-48
2022/01/09 04:44:06;;;;;;;28.48;6.05;;;;;;;7.81;66.15;99449.78;5273161;27;20409;-44
2022/01/09 04:46:43;;;;;;;24.40;6.20;;;;;;;7.81;65.68;99445.34;5271930;27;20418;-45
2022/01/09 04:49:17;;;;;;;23.67;6.25;;;;;;;7.80;65.71;99448.97;5268014;28;20443;-44
2022/01/09 04:51:50;;;;;;;41.23;8.03;;;;;;;7.81;65.66;99444.53;5269907;28;20412;-44
2022/01/09 04:54:23;;;;;;;26.20;6.00;;;;;;;7.80;65.73;99458.63;5271297;28;20437;-44
2022/01/09 04:56:56;;;;;;;23.20;5.93;;;;;;;7.81;65.51;99452.41;5271068;27;20492;-43
2022/01/09 04:59:28;;;;;;;20.23;5.22;;;;;;;7.77;65.65;99470.31;5265520;28;20497;-45
2022/01/09 05:02:01;;;;;;;16.70;5.13;;;;;;;7.70;65.85;99464.06;5269974;28;20410;-45
2022/01/09 05:04:33;;;;;;;22.65;5.75;;;;;;;7.77;65.59;99478.22;5269042;28;20416;-47
2022/01/09 05:07:06;;;;;;;26.55;6.38;;;;;;;7.78;65.54;99493.00;5263356;28;20408;-45
2022/01/09 05:09:39;;;;;;;25.35;6.63;;;;;;;7.77;65.62;99491.34;5267363;28;20424;-45
2022/01/09 05:12:12;;;;;;;23.25;5.97;;;;;;;7.60;65.69;99479.19;5266432;28;20437;-45
2022/01/09 05:14:45;;;;;;;21.40;6.55;;;;;;;7.75;65.48;99511.72;5272441;28;20414;-45
2022/01/09 05:17:17;;;;;;;25.45;5.57;;;;;;;7.73;65.58;99518.94;5266902;28;20506;-45
2022/01/09 05:19:51;;;;;;;11.90;4.35;;;;;;;7.68;65.41;99518.63;5268695;28;20412;-46
2022/01/09 05:22:24;;;;;;;18.60;4.60;;;;;;;7.59;65.47;99507.28;5265955;28;20410;-46
2022/01/09 05:25:01;;;;;;;13.57;4.00;;;;;;;7.58;65.55;99520.56;5264236;28;20893;-45
2022/01/09 05:27:34;;;;;;;18.85;5.15;;;;;;;7.55;65.45;99510.38;5268929;28;20408;-49
2022/01/09 05:30:08;;;;;;;22.85;5.50;;;;;;;7.54;65.50;99527.13;5268557;28;20404;-45
2022/01/09 05:32:40;;;;;;;28.80;5.93;;;;;;;7.53;65.48;99536.81;5270357;27;20852;-46
2022/01/09 05:35:13;;;;;;;29.40;6.95;;;;;;;7.52;65.45;99529.91;5270578;28;20404;-45
2022/01/09 05:37:45;;;;;;;25.23;6.43;;;;;;;7.51;65.35;99540.59;5269907;28;20487;-45
2022/01/09 05:40:19;;;;;;;28.08;7.10;;;;;;;7.49;65.48;99547.81;5270757;28;20867;-46
2022/01/09 05:42:52;;;;;;;22.75;7.15;;;;;;;7.52;65.48;99550.09;5268538;28;20422;-46
2022/01/09 05:45:24;;;;;;;27.20;6.57;;;;;;;7.55;65.51;99550.59;5270394;28;20422;-46
2022/01/09 05:47:56;;;;;;;25.95;6.07;;;;;;;7.55;65.29;99558.47;5269984;27;20415;-48
2022/01/09 05:50:29;;;;;;;27.95;6.35;;;;;;;7.54;65.27;99553.41;5269651;28;20974;-46
2022/01/09 05:53:02;;;;;;;30.63;6.80;;;;;;;7.53;65.32;99557.03;5271016;28;20747;-47
2022/01/09 05:55:35;;;;;;;34.45;6.63;;;;;;;7.52;65.41;99558.81;5264177;28;20761;-53
2022/01/09 05:58:08;;;;;;;28.02;6.43;;;;;;;7.51;65.41;99569.50;5270691;28;20404;-46
2022/01/09 06:00:40;;;;;;;17.87;5.77;;;;;;;7.47;65.38;99566.38;5269570;28;22266;-45
2022/01/09 06:03:12;;;;;;;21.63;5.05;;;;;;;7.45;65.26;99575.38;5265589;28;20424;-50
2022/01/09 06:05:45;;;;;;;20.52;5.50;;;;;;;7.42;65.31;99575.72;5269517;28;20423;-45
2022/01/09 06:08:17;;;;;;;20.20;5.68;;;;;;;7.39;65.39;99572.41;5259288;28;20881;-46
2022/01/09 06:10:51;;;;;;;35.42;5.78;;;;;;;7.36;65.13;99577.97;5270445;28;20409;-46
2022/01/09 06:13:23;;;;;;;23.15;6.03;;;;;;;7.34;65.41;99584.38;5267205;28;20404;-46
2022/01/09 06:15:55;;;;;;;35.17;7.63;;;;;;;7.16;64.99;99566.13;5264969;28;20410;-47
2022/01/09 06:18:28;;;;;;;24.92;6.13;;;;;;;7.25;65.13;99591.41;5263307;28;20423;-46
2022/01/09 06:21:00;;;;;;;24.20;5.88;;;;;;;7.21;65.11;99594.50;5265475;28;20773;-50
2022/01/09 06:23:32;;;;;;;22.08;6.28;;;;;;;7.18;65.31;99600.06;5266865;28;20404;-46
2022/01/09 06:26:06;;;;;;;36.97;6.93;;;;;;;7.11;65.21;99600.72;5265894;28;20436;-45
2022/01/09 06:28:38;;;;;;;21.75;5.68;;;;;;;7.12;65.13;99612.03;5267305;28;20877;-48
2022/01/09 06:31:11;;;;;;;19.17;5.93;;;;;;;7.06;65.14;99615.28;5258631;28;20418;-46
2022/01/09 06:33:43;;;;;;;27.77;6.60;;;;;;;6.55;65.31;99536.47;5261394;28;20509;-45
2022/01/09 06:36:15;;;;;;;21.37;5.93;;;;;;;7.09;65.14;99625.47;5269479;28;20509;-46
2022/01/09 06:38:48;;;;;;;42.10;6.28;;;;;;;7.06;65.18;99628.41;5272183;28;20422;-46
2022/01/09 06:41:21;;;;;;;28.45;5.93;;;;;;;7.02;65.05;99637.59;5258332;28;20763;-45
2022/01/09 06:43:54;;;;;;;27.70;5.97;;;;;;;6.98;65.13;99641.50;5265110;28;20412;-44
2022/01/09 06:46:26;;;;;;;25.93;5.83;;;;;;;6.97;65.32;99639.84;5266690;28;20399;-45
2022/01/09 06:48:59;;;;;;;22.00;6.22;;;;;;;6.97;65.21;99642.47;5272247;28;20424;-46
2022/01/09 06:51:31;;;;;;;24.23;6.13;;;;;;;6.97;65.19;99651.19;5269404;28;20389;-45
2022/01/09 06:54:04;;;;;;;28.40;6.70;;;;;;;7.00;65.21;99657.91;5268656;28;20766;-49
2022/01/09 06:56:38;;;;;;;34.80;6.25;;;;;;;7.02;65.36;99664.66;5267747;28;20753;-44
2022/01/09 06:59:10;;;;;;;27.85;6.00;;;;;;;7.04;65.09;99662.69;5267985;28;20404;-47
2022/01/09 07:01:42;;;;;;;26.20;6.57;;;;;;;7.04;64.97;99667.13;5272109;28;20511;-45
2022/01/09 07:04:15;;;;;;;26.30;6.68;;;;;;;7.05;65.02;99671.41;5268427;27;20407;-46
2022/01/09 07:06:47;;;;;;;32.20;6.75;;;;;;;7.06;65.14;99675.66;5270297;28;20491;-46
2022/01/09 07:09:19;;;;;;;19.75;5.57;;;;;;;7.05;65.18;99663.53;5272273;28;20764;-45
2022/01/09 07:11:53;;;;;;;23.02;6.35;;;;;;;7.08;65.30;99668.47;5267171;27;20414;-49
2022/01/09 07:14:25;;;;;;;26.58;6.30;;;;;;;7.11;65.11;99678.66;5272816;27;20408;-46
2022/01/09 07:16:57;;;;;;;24.83;6.47;;;;;;;7.13;65.18;99692.47;5269975;28;20408;-47
2022/01/09 07:19:30;;;;;;;29.25;7.07;;;;;;;7.19;64.98;99693.66;5273745;28;20420;-46
2022/01/09 07:22:02;;;;;;;24.38;6.43;;;;;;;7.19;65.09;99691.84;5271194;28;20730;-47
2022/01/09 07:24:35;;;;;;;26.00;6.72;;;;;;;7.18;65.02;99690.16;5270369;28;20397;-49
2022/01/09 07:27:09;;;;;;;36.53;6.65;;;;;;;7.19;65.15;99707.59;5273690;27;20396;-45
2022/01/09 07:29:41;;;;;;;33.53;6.63;;;;;;;7.22;65.14;99709.91;5267312;28;20408;-50
2022/01/09 07:32:14;;;;;;;18.70;6.05;;;;;;;7.24;65.02;99715.81;5267710;28;20447;-45
2022/01/09 07:34:48;;;;;;;19.98;6.50;;;;;;;7.24;65.21;99721.06;5261512;27;20499;-45
2022/01/09 07:37:20;;;;;;;17.50;5.43;;;;;;;7.27;64.98;99730.44;5268185;27;20409;-47
2022/01/09 07:39:53;;;;;;;21.73;4.60;;;;;;;7.30;65.02;99746.69;5267639;28;20422;-45
2022/01/09 07:42:27;;;;;;;18.05;5.32;;;;;;;7.29;65.25;99739.81;5267546;28;20437;-45
2022/01/09 07:44:59;;;;;;;18.77;4.87;;;;;;;7.26;65.19;99745.38;5270257;27;20493;-45
2022/01/09 07:47:32;;;;;;;25.92;5.60;;;;;;;7.24;65.02;99752.56;5270136;28;20438;-45
2022/01/09 07:50:04;;;;;;;14.38;4.25;;;;;;;7.22;65.07;99758.97;5268624;27;20483;-51
2022/01/09 07:52:37;;;;;;;16.75;4.55;;;;;;;7.17;64.96;99756.81;5272878;28;20396;-45
2022/01/09 07:55:11;;;;;;;16.05;5.95;;;;;;;7.11;65.08;99752.97;5272900;27;20411;-44
2022/01/09 07:57:45;;;;;;;12.60;4.43;;;;;;;7.07;64.96;99753.47;5270141;27;20466;-45
2022/01/09 08:00:19;;;;;;;26.33;5.38;;;;;;;7.01;65.05;99748.81;5269317;28;20432;-48
2022/01/09 08:02:51;;;;;;;17.17;5.32;;;;;;;6.98;65.20;99763.06;5263231;28;20423;-45
2022/01/09 08:05:24;;;;;;;22.40;5.53;;;;;;;6.93;65.03;99766.13;5270503;27;22626;-44
2022/01/09 08:07:56;;;;;;;28.80;5.63;;;;;;;6.87;65.13;99756.25;5269081;28;20507;-45
2022/01/09 08:10:29;;;;;;;15.68;4.95;;;;;;;6.86;65.03;99767.75;5261296;27;20556;-44
2022/01/09 08:13:02;;;;;;;15.27;4.27;;;;;;;6.82;65.12;99774.28;5264209;27;20435;-46
2022/01/09 08:15:35;;;;;;;23.73;5.90;;;;;;;6.82;64.96;99784.78;5262346;28;20413;-49
2022/01/09 08:18:07;;;;;;;30.55;5.47;;;;;;;6.83;64.98;99773.28;5270158;27;20496;-47
2022/01/09 08:20:39;;;;;;;21.02;6.13;;;;;;;6.83;64.86;99775.91;5267399;28;20774;-45
2022/01/09 08:23:12;;;;;;;23.73;6.40;;;;;;;6.75;64.80;99773.25;5269859;28;20426;-47
2022/01/09 08:25:44;;;;;;;19.35;5.32;;;;;;;6.83;64.81;99791.66;5269244;28;20503;-47
2022/01/09 08:28:21;;;;;;;20.50;6.10;;;;;;;6.89;64.80;99795.47;5273249;28;20400;-46
2022/01/09 08:30:53;;;;;;;40.20;6.47;;;;;;;6.96;64.57;99795.69;5266578;28;20809;-45
2022/01/09 08:33:25;;;;;;;25.48;5.43;;;;;;;7.02;64.75;99795.09;5268911;27;20471;-45
2022/01/09 08:35:58;;;;;;;27.77;7.07;;;;;;;7.08;64.88;99810.22;5268793;28;20757;-46
2022/01/09 08:38:30;;;;;;;26.77;6.68;;;;;;;7.13;64.77;99813.25;5268312;28;20499;-49
2022/01/09 08:41:03;;;;;;;35.42;7.32;;;;;;;7.16;64.67;99819.00;5270287;28;20408;-46
2022/01/09 08:43:38;;;;;;;23.60;6.50;;;;;;;7.17;64.64;99814.56;5265192;28;20901;-49
2022/01/09 08:46:10;;;;;;;21.50;6.50;;;;;;;7.18;64.69;99826.72;5263475;28;20440;-47
2022/01/09 08:48:43;;;;;;;37.13;7.53;;;;;;;7.12;64.64;99817.66;5274925;28;20404;-46
2022/01/09 08:51:15;;;;;;;23.75;7.45;;;;;;;7.23;64.84;99834.16;5273390;27;20480;-48
2022/01/09 08:53:50;;;;;;;28.52;7.65;;;;;;;7.23;64.56;99834.16;5271410;27;20873;-48
2022/01/09 08:56:26;;;;;;;29.63;6.50;;;;;;;7.27;64.74;99836.31;5266344;28;20408;-46
2022/01/09 08:59:01;;;;;;;29.75;6.85;;;;;;;7.31;64.70;99842.91;5265566;28;20405;-45
2022/01/09 09:01:33;;;;;;;23.75;6.45;;;;;;;7.38;64.64;99841.31;5268864;27;20402;-46
2022/01/09 09:04:06;;;;;;;27.80;6.93;;;;;;;7.46;64.68;99835.28;5261848;27;20408;-45
2022/01/09 09:06:39;;;;;;;30.88;5.60;;;;;;;7.56;64.73;99848.34;5272131;28;20765;-46
2022/01/09 09:09:12;;;;;;;27.90;6.00;;;;;;;7.60;64.56;99841.78;5270459;28;20440;-46
2022/01/09 09:11:45;;;;;;;24.73;5.85;;;;;;;7.69;64.62;99846.13;5269758;28;20420;-45
2022/01/09 09:14:20;;;;;;;22.75;5.88;;;;;;;7.68;64.59;99847.09;5269198;27;20414;-44
2022/01/09 09:16:52;;;;;;;28.65;6.40;;;;;;;7.73;64.82;99849.25;5270538;28;20418;-47
2022/01/09 09:19:25;;;;;;;27.80;7.18;;;;;;;7.78;65.02;99866.22;5270306;27;20427;-45
2022/01/09 09:21:57;;;;;;;17.88;6.00;;;;;;;7.92;64.76;99870.06;5270070;28;20407;-46
2022/01/09 09:24:30;;;;;;;26.08;6.15;;;;;;;8.01;64.73;99868.28;5262806;28;20423;-46
2022/01/09 09:27:02;;;;;;;25.05;5.90;;;;;;;8.03;64.69;99868.97;5265301;28;20889;-45
2022/01/09 09:29:36;;;;;;;23.17;5.63;;;;;;;8.03;64.69;99879.50;5262012;28;20490;-50
2022/01/09 09:32:08;;;;;;;26.30;6.60;;;;;;;8.01;64.76;99884.06;5266071;28;20418;-46
2022/01/09 09:34:41;;;;;;;20.77;5.55;;;;;;;8.07;64.91;99886.91;5254462;28;20420;-47
2022/01/09 09:37:13;;;;;;;24.98;5.80;;;;;;;8.19;64.76;99889.25;5266215;27;20780;-46
2022/01/09 09:39:46;;;;;;;22.25;5.45;;;;;;;8.29;64.78;99889.94;5266581;28;20418;-44
2022/01/09 09:42:18;;;;;;;23.10;6.50;;;;;;;8.35;64.77;99899.03;5264636;28;20487;-45
2022/01/09 09:44:52;;;;;;;20.70;5.78;;;;;;;8.36;64.78;99905.91;5264659;28;21069;-46
2022/01/09 09:47:25;;;;;;;16.33;5.15;;;;;;;8.34;64.85;99907.91;5266935;28;20412;-46
2022/01/09 09:49:57;;;;;;;22.90;5.43;;;;;;;8.30;64.72;99908.22;5267094;28;20420;-47
2022/01/09 09:52:29;;;;;;;25.20;5.97;;;;;;;8.30;64.78;99913.50;5263705;28;20740;-45
2022/01/09 09:55:03;;;;;;;26.92;6.10;;;;;;;8.27;64.74;99924.31;5263588;28;20982;-45
2022/01/09 09:57:35;;;;;;;26.30;6.53;;;;;;;8.15;64.65;99920.31;5261601;28;20408;-49
2022/01/09 10:00:13;;;;;;;21.88;6.15;;;;;;;8.16;64.71;99916.69;5266788;28;20838;-47
2022/01/09 10:02:47;;;;;;;23.23;5.13;;;;;;;8.11;64.58;99929.47;5263310;28;20407;-46
2022/01/09 10:05:22;;;;;;;23.55;5.22;;;;;;;8.07;64.74;99925.53;5262534;28;20406;-48
2022/01/09 10:08:04;;;;;;;19.83;5.32;;;;;;;8.01;64.61;99923.50;5264710;28;20422;-47
2022/01/09 10:10:38;;;;;;;33.63;7.15;;;;;;;7.99;64.59;99925.47;5253122;28;20427;-52
2022/01/09 10:13:14;;;;;;;31.42;6.97;;;;;;;7.97;64.60;99935.31;5265814;28;20479;-46
2022/01/09 10:15:52;;;;;;;31.90;7.07;;;;;;;7.97;64.67;99943.22;5264604;28;20956;-46
2022/01/09 10:18:44;;;;;;;30.13;7.38;;;;;;;7.99;64.54;99943.88;5268148;28;20403;-49
2022/01/09 10:21:19;;;;;;;24.35;6.88;;;;;;;8.03;64.59;99942.59;5263645;28;20412;-47
2022/01/09 10:24:00;;;;;;;26.10;5.05;;;;;;;8.09;64.49;99940.16;5265480;28;20768;-47
2022/01/09 10:26:35;;;;;;;29.40;7.22;;;;;;;8.16;64.59;99936.91;5265399;28;20412;-46
2022/01/09 10:29:09;;;;;;;27.07;6.37;;;;;;;8.28;64.58;99947.00;5262818;28;20488;-45
2022/01/09 10:31:44;;;;;;;25.48;6.68;;;;;;;8.37;64.37;99949.69;5273041;28;20404;-46
2022/01/09 10:34:17;;;;;;;26.38;6.13;;;;;;;8.42;64.27;99945.59;5275816;27;20412;-45
2022/01/09 10:36:52;;;;;;;23.15;5.40;;;;;;;8.48;64.30;99957.31;5269148;28;20770;-46
2022/01/09 10:39:31;;;;;;;33.60;6.47;;;;;;;8.50;64.39;99950.09;5273071;28;20473;-47
2022/01/09 10:42:07;;;;;;;25.08;7.10;;;;;;;8.53;64.33;99960.31;5274858;28;20866;-45
2022/01/09 10:44:43;;;;;;;27.23;7.07;;;;;;;8.57;64.19;99961.63;5266960;28;20416;-45
2022/01/09 10:47:17;;;;;;;22.35;6.63;;;;;;;8.64;64.28;99954.78;5269584;28;20416;-45
2022/01/09 10:49:52;;;;;;;40.97;7.47;;;;;;;8.70;64.33;99956.78;5274373;28;20440;-45
2022/01/09 10:52:31;;;;;;;20.42;5.78;;;;;;;8.80;64.21;99971.63;5275209;28;20390;-46
2022/01/09 10:55:09;;;;;;;33.13;7.10;;;;;;;8.90;64.17;99978.38;5268980;28;20412;-47
2022/01/09 10:57:42;;;;;;;21.85;6.63;;;;;;;8.92;64.20;99980.84;5273340;28;20420;-48
2022/01/09 11:00:17;;;;;;;17.48;5.20;;;;;;;8.84;64.29;99986.09;5270786;27;20411;-46
2022/01/09 11:02:51;;;;;;;15.77;5.05;;;;;;;8.80;64.25;99992.69;5266675;28;20424;-45
2022/01/09 11:05:24;;;;;;;17.52;4.97;;;;;;;8.71;64.29;100005.78;5267093;28;20408;-46
2022/01/09 11:07:56;;;;;;;18.10;5.28;;;;;;;8.61;64.16;100001.63;5268053;28;20441;-50
2022/01/09 11:10:29;;;;;;;15.82;4.22;;;;;;;8.52;64.06;100006.03;5263488;28;20401;-46
2022/01/09 11:13:03;;;;;;;13.15;3.35;;;;;;;8.46;64.09;100014.56;5267788;28;20410;-48
2022/01/09 11:15:41;;;;;;;12.40;3.77;;;;;;;8.38;64.02;100017.09;5264665;27;20497;-48
2022/01/09 11:18:15;;;;;;;11.02;3.70;;;;;;;8.34;63.99;100018.41;5275351;28;20417;-46
2022/01/09 11:20:47;;;;;;;16.20;4.25;;;;;;;8.27;63.97;100020.84;5268333;27;20742;-45
2022/01/09 11:23:19;;;;;;;12.05;3.70;;;;;;;8.20;63.76;100028.50;5277245;27;20424;-45
2022/01/09 11:25:56;;;;;;;14.63;3.55;;;;;;;8.13;63.98;100032.72;5264694;28;20475;-44
2022/01/09 11:28:35;;;;;;;17.17;4.43;;;;;;;8.05;63.71;100030.88;5254988;28;20394;-46
2022/01/09 11:31:20;;;;;;;12.50;4.30;;;;;;;7.97;63.90;100029.97;5253832;28;20805;-45
2022/01/09 11:34:08;;;;;;;14.80;4.20;;;;;;;7.91;63.70;100033.22;5255692;28;20412;-45
2022/01/09 11:36:48;;;;;;;14.65;4.97;;;;;;;7.85;63.65;100040.72;5253669;28;20891;-45
2022/01/09 11:39:26;;;;;;;17.08;5.63;;;;;;;7.81;63.73;100044.66;5267082;28;20402;-44
2022/01/09 11:42:11;;;;;;;19.20;5.88;;;;;;;7.76;63.76;100051.31;5261617;28;20405;-45
2022/01/09 11:44:48;;;;;;;27.55;6.80;;;;;;;7.72;63.65;100045.56;5262328;28;20500;-45
2022/01/09 11:47:21;;;;;;;17.05;4.72;;;;;;;7.70;63.52;100052.75;5268109;27;20424;-45
2022/01/09 11:50:09;;;;;;;17.75;5.43;;;;;;;7.67;63.55;100057.47;5268633;28;20404;-45
2022/01/09 11:53:01;;;;;;;19.75;5.00;;;;;;;7.65;63.56;100052.41;5265015;28;20428;-46
2022/01/09 11:55:37;;;;;;;23.50;5.88;;;;;;;7.66;63.61;100061.91;5266101;28;20437;-47
2022/01/09 11:58:24;;;;;;;24.13;6.07;;;;;;;7.67;63.58;100057.47;5263023;28;20415;-50
2022/01/09 12:00:56;;;;;;;28.38;6.82;;;;;;;7.71;63.55;100059.69;5265201;28;20415;-45
2022/01/09 12:03:37;;;;;;;26.90;5.95;;;;;;;7.75;63.56;100055.75;5255726;28;20402;-47